sensor_id;sensor_type;location;lat;lon;timestamp;P1;durP1;ratioP1;P2;durP2;ratioP2
18340;SDS011;9296;48.084;16.352;2022-09-03T00:02:01;5.80;;;3.00;;
18340;SDS011;9296;48.084;16.352;2022-09-03T00:04:31;4.85;;;2.97;;
18340;SDS011;9296;48.084;16.352;2022-09-03T00:07:02;4.78;;;3.10;;
18340;SDS011;9296;48.084;16.352;2022-09-03T00:09:30;3.40;;;2.80;;
18340;SDS011;9296;48.084;16.352;2022-09-03T00:15:03;4.30;;;3.17;;
18340;SDS011;9296;48.084;16.352;2022-09-03T00:17:34;7.05;;;3.22;;
18340;SDS011;9296;48.084;16.352;2022-09-03T00:20:02;3.90;;;2.80;;
18340;SDS011;9296;48.084;16.352;2022-09-03T00:22:32;3.20;;;2.80;;
18340;SDS011;9296;48.084;16.352;2022-09-03T00:25:01;5.10;;;3.38;;
18340;SDS011;9296;48.084;16.352;2022-09-03T00:30:49;5.53;;;3.38;;
18340;SDS011;9296;48.084;16.352;2022-09-03T00:33:22;5.90;;;3.10;;
18340;SDS011;9296;48.084;16.352;2022-09-03T00:35:51;3.83;;;3.03;;
18340;SDS011;9296;48.084;16.352;2022-09-03T00:38:20;4.30;;;3.20;;
18340;SDS011;9296;48.084;16.352;2022-09-03T00:40:51;4.85;;;3.03;;
18340;SDS011;9296;48.084;16.352;2022-09-03T00:46:28;4.22;;;3.08;;
18340;SDS011;9296;48.084;16.352;2022-09-03T00:49:03;5.78;;;3.17;;
18340;SDS011;9296;48.084;16.352;2022-09-03T00:51:36;3.58;;;3.20;;
18340;SDS011;9296;48.084;16.352;2022-09-03T00:54:07;3.63;;;3.00;;
18340;SDS011;9296;48.084;16.352;2022-09-03T01:02:50;6.95;;;3.20;;
18340;SDS011;9296;48.084;16.352;2022-09-03T01:05:25;4.78;;;3.53;;
18340;SDS011;9296;48.084;16.352;2022-09-03T01:07:57;4.00;;;3.05;;
18340;SDS011;9296;48.084;16.352;2022-09-03T01:10:28;3.45;;;2.80;;
18340;SDS011;9296;48.084;16.352;2022-09-03T01:12:58;3.65;;;3.00;;
18340;SDS011;9296;48.084;16.352;2022-09-03T01:15:29;3.67;;;3.15;;
18340;SDS011;9296;48.084;16.352;2022-09-03T01:18:00;3.70;;;3.17;;
18340;SDS011;9296;48.084;16.352;2022-09-03T01:20:37;5.35;;;3.30;;
18340;SDS011;9296;48.084;16.352;2022-09-03T01:23:11;4.88;;;3.13;;
18340;SDS011;9296;48.084;16.352;2022-09-03T01:25:46;4.13;;;3.00;;
18340;SDS011;9296;48.084;16.352;2022-09-03T01:28:20;5.20;;;3.10;;
18340;SDS011;9296;48.084;16.352;2022-09-03T01:30:50;3.40;;;2.92;;
18340;SDS011;9296;48.084;16.352;2022-09-03T01:33:23;6.28;;;3.10;;
18340;SDS011;9296;48.084;16.352;2022-09-03T01:35:56;5.15;;;3.20;;
18340;SDS011;9296;48.084;16.352;2022-09-03T01:38:25;5.20;;;3.30;;
18340;SDS011;9296;48.084;16.352;2022-09-03T01:41:00;3.80;;;3.30;;
18340;SDS011;9296;48.084;16.352;2022-09-03T01:46:50;7.53;;;3.35;;
18340;SDS011;9296;48.084;16.352;2022-09-03T01:49:20;5.35;;;3.60;;
18340;SDS011;9296;48.084;16.352;2022-09-03T01:51:50;6.00;;;3.03;;
18340;SDS011;9296;48.084;16.352;2022-09-03T01:54:30;5.47;;;3.47;;
18340;SDS011;9296;48.084;16.352;2022-09-03T02:03:13;6.78;;;3.50;;
18340;SDS011;9296;48.084;16.352;2022-09-03T02:05:40;5.50;;;3.13;;
18340;SDS011;9296;48.084;16.352;2022-09-03T02:08:11;5.70;;;3.20;;
18340;SDS011;9296;48.084;16.352;2022-09-03T02:10:39;5.45;;;3.67;;
18340;SDS011;9296;48.084;16.352;2022-09-03T02:13:08;4.60;;;3.55;;
18340;SDS011;9296;48.084;16.352;2022-09-03T02:15:36;5.95;;;3.60;;
18340;SDS011;9296;48.084;16.352;2022-09-03T02:18:04;5.07;;;3.45;;
18340;SDS011;9296;48.084;16.352;2022-09-03T02:20:34;5.15;;;3.75;;
18340;SDS011;9296;48.084;16.352;2022-09-03T02:23:03;4.78;;;3.53;;
18340;SDS011;9296;48.084;16.352;2022-09-03T02:25:31;5.88;;;3.67;;
18340;SDS011;9296;48.084;16.352;2022-09-03T02:31:04;4.30;;;3.55;;
18340;SDS011;9296;48.084;16.352;2022-09-03T02:33:34;4.45;;;3.47;;
18340;SDS011;9296;48.084;16.352;2022-09-03T02:36:04;4.40;;;3.67;;
18340;SDS011;9296;48.084;16.352;2022-09-03T02:38:32;5.25;;;3.20;;
18340;SDS011;9296;48.084;16.352;2022-09-03T02:40:59;6.15;;;3.47;;
18340;SDS011;9296;48.084;16.352;2022-09-03T02:43:30;5.68;;;3.30;;
18340;SDS011;9296;48.084;16.352;2022-09-03T02:45:58;5.70;;;3.20;;
18340;SDS011;9296;48.084;16.352;2022-09-03T02:48:27;4.20;;;3.38;;
18340;SDS011;9296;48.084;16.352;2022-09-03T02:50:54;6.28;;;3.47;;
18340;SDS011;9296;48.084;16.352;2022-09-03T02:53:23;3.60;;;3.22;;
18340;SDS011;9296;48.084;16.352;2022-09-03T02:55:52;4.43;;;3.60;;
18340;SDS011;9296;48.084;16.352;2022-09-03T03:01:26;5.22;;;3.53;;
18340;SDS011;9296;48.084;16.352;2022-09-03T03:03:53;4.13;;;3.35;;
18340;SDS011;9296;48.084;16.352;2022-09-03T03:06:20;6.47;;;3.70;;
18340;SDS011;9296;48.084;16.352;2022-09-03T03:08:49;3.78;;;3.10;;
18340;SDS011;9296;48.084;16.352;2022-09-03T03:11:20;6.03;;;3.35;;
18340;SDS011;9296;48.084;16.352;2022-09-03T03:16:50;5.15;;;3.72;;
18340;SDS011;9296;48.084;16.352;2022-09-03T03:19:17;4.85;;;3.55;;
18340;SDS011;9296;48.084;16.352;2022-09-03T03:21:45;5.50;;;3.53;;
18340;SDS011;9296;48.084;16.352;2022-09-03T03:24:13;6.13;;;3.72;;
18340;SDS011;9296;48.084;16.352;2022-09-03T03:26:40;4.93;;;3.28;;
18340;SDS011;9296;48.084;16.352;2022-09-03T03:32:12;4.22;;;3.80;;
18340;SDS011;9296;48.084;16.352;2022-09-03T03:34:39;3.92;;;3.53;;
18340;SDS011;9296;48.084;16.352;2022-09-03T03:37:06;7.85;;;3.95;;
18340;SDS011;9296;48.084;16.352;2022-09-03T03:39:35;4.47;;;3.78;;
18340;SDS011;9296;48.084;16.352;2022-09-03T03:42:02;5.50;;;3.25;;
18340;SDS011;9296;48.084;16.352;2022-09-03T03:47:33;6.15;;;3.60;;
18340;SDS011;9296;48.084;16.352;2022-09-03T03:50:00;6.18;;;3.25;;
18340;SDS011;9296;48.084;16.352;2022-09-03T03:52:28;5.00;;;3.60;;
18340;SDS011;9296;48.084;16.352;2022-09-03T03:54:56;6.25;;;3.80;;
18340;SDS011;9296;48.084;16.352;2022-09-03T03:57:28;4.10;;;3.70;;
18340;SDS011;9296;48.084;16.352;2022-09-03T03:59:56;4.25;;;3.70;;
18340;SDS011;9296;48.084;16.352;2022-09-03T04:02:23;4.82;;;3.80;;
18340;SDS011;9296;48.084;16.352;2022-09-03T04:04:50;5.95;;;3.90;;
18340;SDS011;9296;48.084;16.352;2022-09-03T04:07:18;6.03;;;3.85;;
18340;SDS011;9296;48.084;16.352;2022-09-03T04:09:45;4.20;;;3.63;;
18340;SDS011;9296;48.084;16.352;2022-09-03T04:12:14;5.78;;;3.67;;
18340;SDS011;9296;48.084;16.352;2022-09-03T04:14:43;4.65;;;3.53;;
18340;SDS011;9296;48.084;16.352;2022-09-03T04:17:10;6.95;;;3.70;;
18340;SDS011;9296;48.084;16.352;2022-09-03T04:19:39;6.05;;;3.47;;
18340;SDS011;9296;48.084;16.352;2022-09-03T04:22:06;5.35;;;3.60;;
18340;SDS011;9296;48.084;16.352;2022-09-03T04:24:33;6.53;;;4.10;;
18340;SDS011;9296;48.084;16.352;2022-09-03T04:27:00;7.32;;;4.38;;
18340;SDS011;9296;48.084;16.352;2022-09-03T04:32:32;4.88;;;3.58;;
18340;SDS011;9296;48.084;16.352;2022-09-03T04:35:18;4.43;;;3.75;;
18340;SDS011;9296;48.084;16.352;2022-09-03T04:37:46;6.10;;;3.97;;
18340;SDS011;9296;48.084;16.352;2022-09-03T04:40:13;6.10;;;3.90;;
18340;SDS011;9296;48.084;16.352;2022-09-03T04:42:40;7.70;;;3.88;;
18340;SDS011;9296;48.084;16.352;2022-09-03T04:45:08;5.68;;;3.85;;
18340;SDS011;9296;48.084;16.352;2022-09-03T04:47:37;4.15;;;3.55;;
18340;SDS011;9296;48.084;16.352;2022-09-03T04:50:04;7.53;;;3.90;;
18340;SDS011;9296;48.084;16.352;2022-09-03T04:52:32;8.48;;;4.07;;
18340;SDS011;9296;48.084;16.352;2022-09-03T04:54:59;4.80;;;3.78;;
18340;SDS011;9296;48.084;16.352;2022-09-03T05:03:35;5.95;;;4.40;;
18340;SDS011;9296;48.084;16.352;2022-09-03T05:06:02;5.32;;;4.20;;
18340;SDS011;9296;48.084;16.352;2022-09-03T05:08:30;5.57;;;4.40;;
18340;SDS011;9296;48.084;16.352;2022-09-03T05:11:01;5.75;;;4.40;;
18340;SDS011;9296;48.084;16.352;2022-09-03T05:13:29;5.18;;;4.18;;
18340;SDS011;9296;48.084;16.352;2022-09-03T05:15:58;6.95;;;4.22;;
18340;SDS011;9296;48.084;16.352;2022-09-03T05:18:26;6.25;;;4.15;;
18340;SDS011;9296;48.084;16.352;2022-09-03T05:20:58;5.00;;;4.00;;
18340;SDS011;9296;48.084;16.352;2022-09-03T05:23:25;7.15;;;4.18;;
18340;SDS011;9296;48.084;16.352;2022-09-03T05:25:55;5.68;;;4.15;;
18340;SDS011;9296;48.084;16.352;2022-09-03T05:31:28;6.22;;;4.00;;
18340;SDS011;9296;48.084;16.352;2022-09-03T05:33:56;5.63;;;3.78;;
18340;SDS011;9296;48.084;16.352;2022-09-03T05:36:26;8.57;;;4.03;;
18340;SDS011;9296;48.084;16.352;2022-09-03T05:38:54;6.82;;;4.38;;
18340;SDS011;9296;48.084;16.352;2022-09-03T05:41:22;5.95;;;4.03;;
18340;SDS011;9296;48.084;16.352;2022-09-03T05:47:08;6.18;;;4.28;;
18340;SDS011;9296;48.084;16.352;2022-09-03T05:49:38;5.20;;;3.85;;
18340;SDS011;9296;48.084;16.352;2022-09-03T05:52:07;6.65;;;4.22;;
18340;SDS011;9296;48.084;16.352;2022-09-03T05:54:39;5.45;;;4.10;;
18340;SDS011;9296;48.084;16.352;2022-09-03T05:57:06;7.03;;;4.70;;
18340;SDS011;9296;48.084;16.352;2022-09-03T06:04:48;8.02;;;4.05;;
18340;SDS011;9296;48.084;16.352;2022-09-03T06:07:18;4.63;;;3.97;;
18340;SDS011;9296;48.084;16.352;2022-09-03T06:09:51;7.25;;;4.70;;
18340;SDS011;9296;48.084;16.352;2022-09-03T06:12:18;5.85;;;3.90;;
18340;SDS011;9296;48.084;16.352;2022-09-03T06:17:49;4.22;;;3.80;;
18340;SDS011;9296;48.084;16.352;2022-09-03T06:20:18;5.43;;;4.10;;
18340;SDS011;9296;48.084;16.352;2022-09-03T06:22:48;5.10;;;4.43;;
18340;SDS011;9296;48.084;16.352;2022-09-03T06:25:17;5.93;;;4.25;;
18340;SDS011;9296;48.084;16.352;2022-09-03T06:27:44;4.70;;;4.30;;
18340;SDS011;9296;48.084;16.352;2022-09-03T06:30:31;5.43;;;4.43;;
18340;SDS011;9296;48.084;16.352;2022-09-03T06:32:59;5.85;;;4.30;;
18340;SDS011;9296;48.084;16.352;2022-09-03T06:35:26;6.43;;;4.10;;
18340;SDS011;9296;48.084;16.352;2022-09-03T06:37:55;7.32;;;4.38;;
18340;SDS011;9296;48.084;16.352;2022-09-03T06:40:22;4.90;;;3.95;;
18340;SDS011;9296;48.084;16.352;2022-09-03T06:48:52;5.18;;;4.40;;
18340;SDS011;9296;48.084;16.352;2022-09-03T06:51:20;6.75;;;4.07;;
18340;SDS011;9296;48.084;16.352;2022-09-03T06:53:49;4.85;;;4.35;;
18340;SDS011;9296;48.084;16.352;2022-09-03T06:56:18;5.53;;;4.22;;
18340;SDS011;9296;48.084;16.352;2022-09-03T06:58:51;5.35;;;3.75;;
18340;SDS011;9296;48.084;16.352;2022-09-03T07:01:19;7.18;;;3.85;;
18340;SDS011;9296;48.084;16.352;2022-09-03T07:03:48;5.20;;;4.00;;
18340;SDS011;9296;48.084;16.352;2022-09-03T07:06:20;6.07;;;4.43;;
18340;SDS011;9296;48.084;16.352;2022-09-03T07:08:48;7.35;;;4.10;;
18340;SDS011;9296;48.084;16.352;2022-09-03T07:11:16;5.30;;;3.83;;
18340;SDS011;9296;48.084;16.352;2022-09-03T07:13:47;5.53;;;3.70;;
18340;SDS011;9296;48.084;16.352;2022-09-03T07:16:15;6.68;;;3.40;;
18340;SDS011;9296;48.084;16.352;2022-09-03T07:18:42;4.53;;;3.25;;
18340;SDS011;9296;48.084;16.352;2022-09-03T07:21:11;5.38;;;3.38;;
18340;SDS011;9296;48.084;16.352;2022-09-03T07:23:38;7.07;;;3.45;;
18340;SDS011;9296;48.084;16.352;2022-09-03T07:26:08;4.75;;;3.20;;
18340;SDS011;9296;48.084;16.352;2022-09-03T07:28:36;6.40;;;3.20;;
18340;SDS011;9296;48.084;16.352;2022-09-03T07:31:04;3.58;;;3.05;;
18340;SDS011;9296;48.084;16.352;2022-09-03T07:33:32;7.22;;;3.40;;
18340;SDS011;9296;48.084;16.352;2022-09-03T07:36:02;4.28;;;3.30;;
18340;SDS011;9296;48.084;16.352;2022-09-03T07:38:30;5.32;;;3.10;;
18340;SDS011;9296;48.084;16.352;2022-09-03T07:40:58;3.47;;;2.90;;
18340;SDS011;9296;48.084;16.352;2022-09-03T07:43:27;5.50;;;3.40;;
18340;SDS011;9296;48.084;16.352;2022-09-03T07:45:56;3.78;;;2.67;;
18340;SDS011;9296;48.084;16.352;2022-09-03T07:48:25;7.57;;;2.95;;
18340;SDS011;9296;48.084;16.352;2022-09-03T07:50:58;5.70;;;3.20;;
18340;SDS011;9296;48.084;16.352;2022-09-03T07:53:29;5.65;;;3.28;;
18340;SDS011;9296;48.084;16.352;2022-09-03T07:55:59;4.32;;;3.30;;
18340;SDS011;9296;48.084;16.352;2022-09-03T08:05:00;3.60;;;2.72;;
18340;SDS011;9296;48.084;16.352;2022-09-03T08:07:27;3.75;;;2.40;;
18340;SDS011;9296;48.084;16.352;2022-09-03T08:10:09;2.60;;;2.10;;
18340;SDS011;9296;48.084;16.352;2022-09-03T08:12:37;2.47;;;2.17;;
18340;SDS011;9296;48.084;16.352;2022-09-03T08:18:08;3.47;;;2.38;;
18340;SDS011;9296;48.084;16.352;2022-09-03T08:25:55;2.88;;;2.45;;
18340;SDS011;9296;48.084;16.352;2022-09-03T08:31:56;4.65;;;2.67;;
18340;SDS011;9296;48.084;16.352;2022-09-03T08:34:26;3.83;;;2.45;;
18340;SDS011;9296;48.084;16.352;2022-09-03T08:37:08;3.30;;;2.17;;
18340;SDS011;9296;48.084;16.352;2022-09-03T08:39:40;3.20;;;2.35;;
18340;SDS011;9296;48.084;16.352;2022-09-03T08:45:10;3.85;;;2.33;;
18340;SDS011;9296;48.084;16.352;2022-09-03T08:50:47;4.20;;;2.33;;
18340;SDS011;9296;48.084;16.352;2022-09-03T08:53:16;2.55;;;2.22;;
18340;SDS011;9296;48.084;16.352;2022-09-03T08:55:54;3.50;;;2.35;;
18340;SDS011;9296;48.084;16.352;2022-09-03T09:01:46;3.10;;;2.10;;
18340;SDS011;9296;48.084;16.352;2022-09-03T09:04:21;3.65;;;2.47;;
18340;SDS011;9296;48.084;16.352;2022-09-03T09:07:14;3.28;;;2.40;;
18340;SDS011;9296;48.084;16.352;2022-09-03T09:09:45;4.78;;;2.20;;
18340;SDS011;9296;48.084;16.352;2022-09-03T09:12:20;3.35;;;2.10;;
18340;SDS011;9296;48.084;16.352;2022-09-03T09:15:03;3.22;;;2.13;;
18340;SDS011;9296;48.084;16.352;2022-09-03T09:17:39;6.78;;;2.42;;
18340;SDS011;9296;48.084;16.352;2022-09-03T09:20:14;2.72;;;2.25;;
18340;SDS011;9296;48.084;16.352;2022-09-03T09:22:46;2.55;;;2.20;;
18340;SDS011;9296;48.084;16.352;2022-09-03T09:25:18;2.33;;;1.92;;
18340;SDS011;9296;48.084;16.352;2022-09-03T09:27:47;4.30;;;2.63;;
18340;SDS011;9296;48.084;16.352;2022-09-03T09:33:28;3.63;;;2.10;;
18340;SDS011;9296;48.084;16.352;2022-09-03T09:35:59;2.78;;;2.00;;
18340;SDS011;9296;48.084;16.352;2022-09-03T09:41:11;3.80;;;2.35;;
18340;SDS011;9296;48.084;16.352;2022-09-03T09:43:43;3.40;;;2.53;;
18340;SDS011;9296;48.084;16.352;2022-09-03T09:46:19;5.40;;;2.30;;
18340;SDS011;9296;48.084;16.352;2022-09-03T09:48:49;8.60;;;2.63;;
18340;SDS011;9296;48.084;16.352;2022-09-03T09:51:18;2.60;;;2.30;;
18340;SDS011;9296;48.084;16.352;2022-09-03T09:53:45;2.58;;;2.22;;
18340;SDS011;9296;48.084;16.352;2022-09-03T09:56:20;2.70;;;2.20;;
18340;SDS011;9296;48.084;16.352;2022-09-03T09:58:48;3.30;;;2.30;;
18340;SDS011;9296;48.084;16.352;2022-09-03T10:01:17;2.65;;;2.20;;
18340;SDS011;9296;48.084;16.352;2022-09-03T10:03:50;3.95;;;2.28;;
18340;SDS011;9296;48.084;16.352;2022-09-03T10:06:21;4.05;;;2.47;;
18340;SDS011;9296;48.084;16.352;2022-09-03T10:09:06;4.03;;;2.30;;
18340;SDS011;9296;48.084;16.352;2022-09-03T10:11:33;2.55;;;2.20;;
18340;SDS011;9296;48.084;16.352;2022-09-03T10:14:17;6.70;;;2.47;;
18340;SDS011;9296;48.084;16.352;2022-09-03T10:16:54;3.75;;;2.58;;
18340;SDS011;9296;48.084;16.352;2022-09-03T10:22:44;5.70;;;2.33;;
18340;SDS011;9296;48.084;16.352;2022-09-03T10:25:28;3.92;;;2.40;;
18340;SDS011;9296;48.084;16.352;2022-09-03T10:34:13;7.32;;;2.30;;
18340;SDS011;9296;48.084;16.352;2022-09-03T10:36:44;5.13;;;2.10;;
18340;SDS011;9296;48.084;16.352;2022-09-03T10:39:28;3.20;;;2.20;;
18340;SDS011;9296;48.084;16.352;2022-09-03T10:42:18;2.90;;;2.10;;
18340;SDS011;9296;48.084;16.352;2022-09-03T10:50:43;3.25;;;2.33;;
18340;SDS011;9296;48.084;16.352;2022-09-03T10:53:18;4.90;;;2.40;;
18340;SDS011;9296;48.084;16.352;2022-09-03T10:55:52;5.72;;;2.45;;
18340;SDS011;9296;48.084;16.352;2022-09-03T11:01:31;5.00;;;2.33;;
18340;SDS011;9296;48.084;16.352;2022-09-03T11:04:21;3.13;;;2.13;;
18340;SDS011;9296;48.084;16.352;2022-09-03T11:07:04;4.45;;;1.80;;
18340;SDS011;9296;48.084;16.352;2022-09-03T11:10:00;3.20;;;2.03;;
18340;SDS011;9296;48.084;16.352;2022-09-03T11:12:45;2.72;;;2.05;;
18340;SDS011;9296;48.084;16.352;2022-09-03T11:18:30;4.22;;;2.08;;
18340;SDS011;9296;48.084;16.352;2022-09-03T11:21:17;4.40;;;2.20;;
18340;SDS011;9296;48.084;16.352;2022-09-03T11:23:48;2.58;;;2.20;;
18340;SDS011;9296;48.084;16.352;2022-09-03T11:26:18;3.08;;;2.10;;
18340;SDS011;9296;48.084;16.352;2022-09-03T11:29:04;3.58;;;1.83;;
18340;SDS011;9296;48.084;16.352;2022-09-03T11:31:52;3.22;;;2.10;;
18340;SDS011;9296;48.084;16.352;2022-09-03T11:34:47;4.05;;;2.08;;
18340;SDS011;9296;48.084;16.352;2022-09-03T11:40:15;3.05;;;2.20;;
18340;SDS011;9296;48.084;16.352;2022-09-03T11:43:04;5.10;;;2.30;;
18340;SDS011;9296;48.084;16.352;2022-09-03T11:45:39;4.65;;;2.08;;
18340;SDS011;9296;48.084;16.352;2022-09-03T11:48:18;6.13;;;1.98;;
18340;SDS011;9296;48.084;16.352;2022-09-03T11:50:56;5.30;;;2.45;;
18340;SDS011;9296;48.084;16.352;2022-09-03T11:53:26;4.05;;;2.00;;
18340;SDS011;9296;48.084;16.352;2022-09-03T11:56:00;3.65;;;2.03;;
18340;SDS011;9296;48.084;16.352;2022-09-03T12:01:46;2.60;;;1.88;;
18340;SDS011;9296;48.084;16.352;2022-09-03T12:04:21;3.75;;;1.98;;
18340;SDS011;9296;48.084;16.352;2022-09-03T12:07:19;3.92;;;2.17;;
18340;SDS011;9296;48.084;16.352;2022-09-03T12:12:52;2.42;;;1.88;;
18340;SDS011;9296;48.084;16.352;2022-09-03T12:15:41;5.30;;;1.90;;
18340;SDS011;9296;48.084;16.352;2022-09-03T12:18:38;8.05;;;2.17;;
18340;SDS011;9296;48.084;16.352;2022-09-03T12:21:23;2.40;;;1.92;;
18340;SDS011;9296;48.084;16.352;2022-09-03T12:23:53;4.68;;;2.00;;
18340;SDS011;9296;48.084;16.352;2022-09-03T12:26:42;2.85;;;2.10;;
18340;SDS011;9296;48.084;16.352;2022-09-03T12:29:21;3.15;;;1.80;;
18340;SDS011;9296;48.084;16.352;2022-09-03T12:32:03;4.68;;;1.70;;
18340;SDS011;9296;48.084;16.352;2022-09-03T12:48:57;2.20;;;2.00;;
18340;SDS011;9296;48.084;16.352;2022-09-03T12:54:27;2.45;;;1.90;;
18340;SDS011;9296;48.084;16.352;2022-09-03T12:57:15;2.28;;;1.73;;
18340;SDS011;9296;48.084;16.352;2022-09-03T13:00:05;3.85;;;1.77;;
18340;SDS011;9296;48.084;16.352;2022-09-03T13:08:22;2.13;;;1.95;;
18340;SDS011;9296;48.084;16.352;2022-09-03T13:10:54;3.53;;;2.17;;
18340;SDS011;9296;48.084;16.352;2022-09-03T13:13:24;3.25;;;2.10;;
18340;SDS011;9296;48.084;16.352;2022-09-03T13:19:02;1.92;;;1.73;;
18340;SDS011;9296;48.084;16.352;2022-09-03T13:21:49;2.20;;;2.00;;
18340;SDS011;9296;48.084;16.352;2022-09-03T13:24:55;2.20;;;1.80;;
18340;SDS011;9296;48.084;16.352;2022-09-03T13:49:42;2.42;;;1.80;;
18340;SDS011;9296;48.084;16.352;2022-09-03T13:58:10;2.10;;;1.83;;
18340;SDS011;9296;48.084;16.352;2022-09-03T14:03:47;2.30;;;2.00;;
18340;SDS011;9296;48.084;16.352;2022-09-03T14:06:29;4.13;;;1.92;;
18340;SDS011;9296;48.084;16.352;2022-09-03T14:09:05;2.85;;;1.92;;
18340;SDS011;9296;48.084;16.352;2022-09-03T14:11:39;4.20;;;1.90;;
18340;SDS011;9296;48.084;16.352;2022-09-03T14:17:16;3.53;;;2.13;;
18340;SDS011;9296;48.084;16.352;2022-09-03T14:19:45;4.80;;;1.92;;
18340;SDS011;9296;48.084;16.352;2022-09-03T14:22:16;2.78;;;1.98;;
18340;SDS011;9296;48.084;16.352;2022-09-03T14:24:46;2.65;;;1.88;;
18340;SDS011;9296;48.084;16.352;2022-09-03T14:27:21;3.40;;;1.95;;
18340;SDS011;9296;48.084;16.352;2022-09-03T14:29:50;3.95;;;1.90;;
18340;SDS011;9296;48.084;16.352;2022-09-03T14:32:50;4.43;;;2.03;;
18340;SDS011;9296;48.084;16.352;2022-09-03T14:51:59;3.97;;;1.85;;
18340;SDS011;9296;48.084;16.352;2022-09-03T14:54:35;3.13;;;1.80;;
18340;SDS011;9296;48.084;16.352;2022-09-03T14:57:08;1.95;;;1.80;;
18340;SDS011;9296;48.084;16.352;2022-09-03T15:06:00;2.58;;;1.92;;
18340;SDS011;9296;48.084;16.352;2022-09-03T15:11:14;3.38;;;2.08;;
18340;SDS011;9296;48.084;16.352;2022-09-03T15:13:47;2.30;;;2.10;;
18340;SDS011;9296;48.084;16.352;2022-09-03T15:16:21;4.07;;;1.80;;
18340;SDS011;9296;48.084;16.352;2022-09-03T15:18:55;4.53;;;1.80;;
18340;SDS011;9296;48.084;16.352;2022-09-03T15:21:31;3.33;;;2.30;;
18340;SDS011;9296;48.084;16.352;2022-09-03T15:24:08;3.00;;;2.05;;
18340;SDS011;9296;48.084;16.352;2022-09-03T15:26:44;4.28;;;1.98;;
18340;SDS011;9296;48.084;16.352;2022-09-03T15:29:18;4.22;;;2.25;;
18340;SDS011;9296;48.084;16.352;2022-09-03T15:31:49;2.45;;;1.98;;
18340;SDS011;9296;48.084;16.352;2022-09-03T15:34:36;3.22;;;2.10;;
18340;SDS011;9296;48.084;16.352;2022-09-03T15:37:07;3.42;;;2.40;;
18340;SDS011;9296;48.084;16.352;2022-09-03T15:39:36;6.15;;;2.10;;
18340;SDS011;9296;48.084;16.352;2022-09-03T15:42:07;2.60;;;1.95;;
18340;SDS011;9296;48.084;16.352;2022-09-03T15:50:49;2.10;;;1.85;;
18340;SDS011;9296;48.084;16.352;2022-09-03T15:53:20;4.05;;;2.10;;
18340;SDS011;9296;48.084;16.352;2022-09-03T15:56:00;3.47;;;1.90;;
18340;SDS011;9296;48.084;16.352;2022-09-03T15:58:30;4.60;;;2.40;;
18340;SDS011;9296;48.084;16.352;2022-09-03T16:04:04;5.95;;;2.10;;
18340;SDS011;9296;48.084;16.352;2022-09-03T16:06:40;4.75;;;2.50;;
18340;SDS011;9296;48.084;16.352;2022-09-03T16:09:17;7.47;;;2.30;;
18340;SDS011;9296;48.084;16.352;2022-09-03T16:11:49;3.85;;;2.45;;
18340;SDS011;9296;48.084;16.352;2022-09-03T16:14:20;3.08;;;2.10;;
18340;SDS011;9296;48.084;16.352;2022-09-03T16:20:13;4.13;;;2.30;;
18340;SDS011;9296;48.084;16.352;2022-09-03T16:22:43;2.97;;;2.33;;
18340;SDS011;9296;48.084;16.352;2022-09-03T16:25:13;3.22;;;2.10;;
18340;SDS011;9296;48.084;16.352;2022-09-03T16:27:45;3.13;;;2.20;;
18340;SDS011;9296;48.084;16.352;2022-09-03T16:30:26;2.53;;;2.30;;
18340;SDS011;9296;48.084;16.352;2022-09-03T16:32:57;5.85;;;2.25;;
18340;SDS011;9296;48.084;16.352;2022-09-03T16:41:11;2.30;;;2.10;;
18340;SDS011;9296;48.084;16.352;2022-09-03T16:43:42;5.53;;;2.42;;
18340;SDS011;9296;48.084;16.352;2022-09-03T16:52:02;2.67;;;2.10;;
18340;SDS011;9296;48.084;16.352;2022-09-03T16:54:36;2.72;;;2.25;;
18340;SDS011;9296;48.084;16.352;2022-09-03T17:00:08;4.43;;;2.42;;
18340;SDS011;9296;48.084;16.352;2022-09-03T17:02:49;5.57;;;2.45;;
18340;SDS011;9296;48.084;16.352;2022-09-03T17:05:20;4.07;;;2.50;;
18340;SDS011;9296;48.084;16.352;2022-09-03T17:08:02;4.03;;;2.30;;
18340;SDS011;9296;48.084;16.352;2022-09-03T17:10:36;5.57;;;2.33;;
18340;SDS011;9296;48.084;16.352;2022-09-03T17:18:57;3.30;;;2.33;;
18340;SDS011;9296;48.084;16.352;2022-09-03T17:21:33;4.80;;;2.55;;
18340;SDS011;9296;48.084;16.352;2022-09-03T17:24:09;3.05;;;2.25;;
18340;SDS011;9296;48.084;16.352;2022-09-03T17:26:43;3.53;;;2.03;;
18340;SDS011;9296;48.084;16.352;2022-09-03T17:29:15;3.05;;;2.05;;
18340;SDS011;9296;48.084;16.352;2022-09-03T17:34:50;6.85;;;2.13;;
18340;SDS011;9296;48.084;16.352;2022-09-03T17:37:24;3.35;;;1.85;;
18340;SDS011;9296;48.084;16.352;2022-09-03T17:40:02;2.40;;;2.20;;
18340;SDS011;9296;48.084;16.352;2022-09-03T17:42:37;5.55;;;2.15;;
18340;SDS011;9296;48.084;16.352;2022-09-03T17:51:17;5.10;;;2.20;;
18340;SDS011;9296;48.084;16.352;2022-09-03T17:53:51;2.90;;;2.10;;
18340;SDS011;9296;48.084;16.352;2022-09-03T17:56:23;2.67;;;2.03;;
18340;SDS011;9296;48.084;16.352;2022-09-03T17:58:52;2.40;;;2.20;;
18340;SDS011;9296;48.084;16.352;2022-09-03T18:01:20;3.70;;;2.10;;
18340;SDS011;9296;48.084;16.352;2022-09-03T18:03:51;5.70;;;2.33;;
18340;SDS011;9296;48.084;16.352;2022-09-03T18:06:29;4.22;;;2.42;;
18340;SDS011;9296;48.084;16.352;2022-09-03T18:09:01;3.50;;;2.53;;
18340;SDS011;9296;48.084;16.352;2022-09-03T18:11:32;3.42;;;2.55;;
18340;SDS011;9296;48.084;16.352;2022-09-03T18:14:05;2.65;;;2.42;;
18340;SDS011;9296;48.084;16.352;2022-09-03T18:19:38;6.20;;;2.67;;
18340;SDS011;9296;48.084;16.352;2022-09-03T18:22:27;2.75;;;2.50;;
18340;SDS011;9296;48.084;16.352;2022-09-03T18:25:14;3.10;;;2.80;;
18340;SDS011;9296;48.084;16.352;2022-09-03T18:28:02;4.50;;;2.90;;
18340;SDS011;9296;48.084;16.352;2022-09-03T18:31:08;3.38;;;3.08;;
18340;SDS011;9296;48.084;16.352;2022-09-03T18:33:53;3.50;;;3.20;;
18340;SDS011;9296;48.084;16.352;2022-09-03T18:36:38;3.88;;;3.35;;
18340;SDS011;9296;48.084;16.352;2022-09-03T18:39:24;5.50;;;3.15;;
18340;SDS011;9296;48.084;16.352;2022-09-03T18:42:10;3.40;;;2.90;;
18340;SDS011;9296;48.084;16.352;2022-09-03T18:48:25;4.47;;;3.33;;
18340;SDS011;9296;48.084;16.352;2022-09-03T18:51:15;3.15;;;2.90;;
18340;SDS011;9296;48.084;16.352;2022-09-03T18:54:07;4.35;;;2.80;;
18340;SDS011;9296;48.084;16.352;2022-09-03T18:56:56;4.35;;;2.90;;
18340;SDS011;9296;48.084;16.352;2022-09-03T18:59:47;3.83;;;3.00;;
18340;SDS011;9296;48.084;16.352;2022-09-03T19:05:41;3.67;;;2.60;;
18340;SDS011;9296;48.084;16.352;2022-09-03T19:08:30;3.17;;;2.88;;
18340;SDS011;9296;48.084;16.352;2022-09-03T19:11:22;4.13;;;3.00;;
18340;SDS011;9296;48.084;16.352;2022-09-03T19:14:13;2.90;;;2.70;;
18340;SDS011;9296;48.084;16.352;2022-09-03T19:17:02;6.65;;;3.20;;
18340;SDS011;9296;48.084;16.352;2022-09-03T19:19:53;4.47;;;3.17;;
18340;SDS011;9296;48.084;16.352;2022-09-03T19:22:41;3.83;;;3.40;;
18340;SDS011;9296;48.084;16.352;2022-09-03T19:25:27;4.10;;;3.20;;
18340;SDS011;9296;48.084;16.352;2022-09-03T19:28:13;3.33;;;3.03;;
18340;SDS011;9296;48.084;16.352;2022-09-03T19:34:04;5.13;;;3.65;;
18340;SDS011;9296;48.084;16.352;2022-09-03T19:42:00;3.92;;;3.00;;
18340;SDS011;9296;48.084;16.352;2022-09-03T19:44:51;5.57;;;3.40;;
18340;SDS011;9296;48.084;16.352;2022-09-03T19:50:49;5.07;;;3.28;;
18340;SDS011;9296;48.084;16.352;2022-09-03T19:53:39;4.65;;;3.33;;
18340;SDS011;9296;48.084;16.352;2022-09-03T19:56:26;5.03;;;3.25;;
18340;SDS011;9296;48.084;16.352;2022-09-03T19:59:14;4.28;;;3.15;;
18340;SDS011;9296;48.084;16.352;2022-09-03T20:02:01;3.50;;;3.20;;
18340;SDS011;9296;48.084;16.352;2022-09-03T20:04:46;4.13;;;3.42;;
18340;SDS011;9296;48.084;16.352;2022-09-03T20:07:34;8.35;;;3.30;;
18340;SDS011;9296;48.084;16.352;2022-09-03T20:10:20;3.90;;;3.50;;
18340;SDS011;9296;48.084;16.352;2022-09-03T20:12:48;4.40;;;3.08;;